createdAt,value
2023-02-19T00:00:40.632Z,5.56
2023-02-19T00:05:42.662Z,5.49
2023-02-19T00:10:44.867Z,5.53
2023-02-19T00:21:11.516Z,5.45
2023-02-19T00:26:18.475Z,5.44
2023-02-19T00:31:24.643Z,5.44
2023-02-19T00:36:28.159Z,5.40
2023-02-19T00:41:30.569Z,5.34
2023-02-19T00:46:36.021Z,5.30
2023-02-19T00:51:38.922Z,5.29
2023-02-19T00:56:41.304Z,5.33
2023-02-19T01:01:45.142Z,5.35
2023-02-19T01:06:47.340Z,5.25
2023-02-19T01:11:49.437Z,5.19
2023-02-19T01:16:52.862Z,5.18
2023-02-19T01:21:55.345Z,5.14
2023-02-19T01:26:57.767Z,5.09
2023-02-19T01:32:01.542Z,5.10
2023-02-19T01:37:03.690Z,5.03
2023-02-19T01:42:06.470Z,5.00
2023-02-19T01:47:09.971Z,5.08
2023-02-19T01:52:15.746Z,5.04
2023-02-19T01:57:23.079Z,5.06
2023-02-19T02:02:26.652Z,5.01
2023-02-19T02:07:28.639Z,5.00
2023-02-19T02:12:30.671Z,4.95
2023-02-19T02:17:44.195Z,4.81
2023-02-19T02:22:53.212Z,4.83
2023-02-19T02:33:44.741Z,4.80
2023-02-19T02:44:34.373Z,5.05
2023-02-19T02:49:37.940Z,4.92
2023-02-19T02:54:40.120Z,4.92
2023-02-19T02:59:43.622Z,4.86
2023-02-19T03:04:52.835Z,4.89
2023-02-19T03:09:57.103Z,4.79
2023-02-19T03:15:04.632Z,4.77
2023-02-19T03:20:14.158Z,4.65
2023-02-19T03:25:28.530Z,4.46
2023-02-19T03:36:22.830Z,4.17
2023-02-19T03:41:31.192Z,4.07
2023-02-19T03:46:42.588Z,4.03
2023-02-19T03:51:51.810Z,3.80
2023-02-19T03:57:00.605Z,3.77
2023-02-19T04:02:34.366Z,3.67
2023-02-19T04:07:42.691Z,3.61
2023-02-19T04:12:50.337Z,3.40
2023-02-19T04:17:56.754Z,3.45
2023-02-19T04:23:00.353Z,3.39
2023-02-19T04:28:02.852Z,3.20
2023-02-19T04:33:05.128Z,3.10
2023-02-19T04:38:08.465Z,3.07
2023-02-19T04:43:11.328Z,3.02
2023-02-19T04:48:13.484Z,2.91
2023-02-19T04:53:17.019Z,2.89
2023-02-19T04:58:20.452Z,2.91
2023-02-19T05:03:22.182Z,2.96
2023-02-19T05:08:25.520Z,2.94
2023-02-19T05:13:28.102Z,2.81
2023-02-19T05:18:31.626Z,2.78
2023-02-19T05:23:39.711Z,2.78
2023-02-19T05:28:41.853Z,2.72
2023-02-19T05:33:44.839Z,2.65
2023-02-19T05:38:51.929Z,2.66
2023-02-19T05:43:54.788Z,2.66
2023-02-19T05:48:57.003Z,2.69
2023-02-19T05:54:00.517Z,2.67
2023-02-19T05:59:05.373Z,2.69
2023-02-19T06:04:07.420Z,2.68
2023-02-19T06:09:11.813Z,2.61
2023-02-19T06:14:14.503Z,2.62
2023-02-19T06:19:17.074Z,2.67
2023-02-19T06:24:20.716Z,2.61
2023-02-19T06:29:22.794Z,2.72
2023-02-19T06:34:25.342Z,2.78
2023-02-19T06:39:28.911Z,2.75
2023-02-19T06:44:36.993Z,2.73
2023-02-19T06:49:48.619Z,2.67
2023-02-19T06:54:51.961Z,2.85
2023-02-19T06:59:53.948Z,2.76
2023-02-19T07:04:56.082Z,2.77
2023-02-19T07:09:59.267Z,2.92
2023-02-19T07:15:01.288Z,2.92
2023-02-19T07:20:04.091Z,3.06
2023-02-19T07:25:07.809Z,3.24
2023-02-19T07:30:10.855Z,3.38
2023-02-19T07:35:13.282Z,3.39
2023-02-19T07:40:16.497Z,3.27
2023-02-19T07:45:18.612Z,3.38
2023-02-19T07:50:20.683Z,3.31
2023-02-19T07:55:23.800Z,3.27
2023-02-19T08:00:26.557Z,3.37
2023-02-19T08:05:30.251Z,3.38
2023-02-19T08:10:33.457Z,3.45
2023-02-19T08:15:35.879Z,3.56
2023-02-19T08:20:37.682Z,3.64
2023-02-19T08:25:41.892Z,3.79
2023-02-19T08:30:45.897Z,3.79
2023-02-19T08:35:49.230Z,3.91
2023-02-19T08:40:52.843Z,3.99
2023-02-19T08:46:05.337Z,4.16
2023-02-19T08:51:11.571Z,4.44
2023-02-19T08:56:32.187Z,4.65
2023-02-19T09:01:34.859Z,4.66
2023-02-19T09:06:39.151Z,4.71
2023-02-19T09:11:43.331Z,5.00
2023-02-19T09:16:45.241Z,5.06
2023-02-19T09:21:47.423Z,4.83
2023-02-19T09:26:51.080Z,4.87
2023-02-19T09:31:56.182Z,4.83
2023-02-19T09:36:58.249Z,5.30
2023-02-19T09:42:04.626Z,5.23
2023-02-19T09:47:13.566Z,5.59
2023-02-19T09:52:19.525Z,5.93
2023-02-19T09:57:24.478Z,5.91
2023-02-19T10:02:27.351Z,5.72
2023-02-19T10:07:37.210Z,6.71
2023-02-19T10:12:45.701Z,6.54
2023-02-19T10:18:03.221Z,6.17
2023-02-19T10:23:08.259Z,6.38
2023-02-19T10:28:15.521Z,6.68
2023-02-19T10:33:17.314Z,11.05
2023-02-19T10:38:36.798Z,11.89
2023-02-19T10:43:43.336Z,12.34
2023-02-19T10:48:50.049Z,15.60
2023-02-19T10:54:04.706Z,14.81
2023-02-19T10:59:24.609Z,14.49
2023-02-19T11:04:28.381Z,13.57
2023-02-19T11:09:37.425Z,11.38
2023-02-19T11:14:44.130Z,12.24
2023-02-19T11:19:46.991Z,11.24
2023-02-19T11:24:51.170Z,13.97
2023-02-19T11:29:54.970Z,13.01
2023-02-19T11:35:15.311Z,10.52
2023-02-19T11:40:17.921Z,9.99
2023-02-19T11:45:35.098Z,8.53
2023-02-19T11:50:48.369Z,7.43
2023-02-19T11:56:09.744Z,6.92
2023-02-19T12:01:24.120Z,7.16
2023-02-19T12:06:34.779Z,7.89
2023-02-19T12:11:50.139Z,8.35
2023-02-19T12:17:02.739Z,7.78
2023-02-19T12:22:38.218Z,8.12
2023-02-19T12:27:50.321Z,7.23
2023-02-19T12:33:20.882Z,7.75
2023-02-19T12:44:17.132Z,7.87
2023-02-19T12:49:40.502Z,7.89
2023-02-19T12:54:45.791Z,8.12
2023-02-19T12:59:53.853Z,8.23
2023-02-19T13:05:04.691Z,8.03
2023-02-19T13:10:19.518Z,7.66
2023-02-19T13:15:28.545Z,7.09
2023-02-19T13:20:36.857Z,7.10
2023-02-19T13:25:49.515Z,7.26
2023-02-19T13:31:16.390Z,7.27
2023-02-19T13:36:25.898Z,8.03
2023-02-19T13:41:30.109Z,7.87
2023-02-19T13:46:38.912Z,8.16
2023-02-19T13:51:50.810Z,7.40
2023-02-19T13:57:26.093Z,6.68
2023-02-19T14:02:32.163Z,6.47
2023-02-19T14:07:54.936Z,6.54
2023-02-19T14:12:57.216Z,6.82
2023-02-19T14:17:59.287Z,6.44
2023-02-19T14:23:24.499Z,6.18
2023-02-19T14:28:30.586Z,6.17
2023-02-19T14:33:35.484Z,6.12
2023-02-19T14:38:45.895Z,6.08
2023-02-19T14:43:50.518Z,6.19
2023-02-19T14:48:52.469Z,6.47
2023-02-19T14:53:57.468Z,6.34
2023-02-19T14:59:21.335Z,6.28
2023-02-19T15:04:25.283Z,6.37
2023-02-19T15:09:32.734Z,6.34
2023-02-19T15:14:35.196Z,6.45
2023-02-19T15:19:37.456Z,6.59
2023-02-19T15:24:43.840Z,6.47
2023-02-19T15:29:46.552Z,6.52
2023-02-19T15:34:56.419Z,6.32
2023-02-19T15:40:03.492Z,6.27
2023-02-19T15:45:15.617Z,6.06
2023-02-19T15:50:22.687Z,5.90
2023-02-19T15:55:33.085Z,5.74
2023-02-19T16:00:40.058Z,5.63
2023-02-19T16:05:41.855Z,5.54
2023-02-19T16:10:55.502Z,5.49
2023-02-19T16:16:07.042Z,5.44
2023-02-19T16:21:09.325Z,5.23
2023-02-19T16:26:12.718Z,5.14
2023-02-19T16:31:15.716Z,4.86
2023-02-19T16:36:20.433Z,4.76
2023-02-19T16:41:58.784Z,4.70
2023-02-19T16:47:05.507Z,4.41
2023-02-19T16:52:07.664Z,4.18
2023-02-19T16:57:09.855Z,4.00
2023-02-19T17:02:18.666Z,3.89
2023-02-19T17:07:20.698Z,3.76
2023-02-19T17:12:23.736Z,3.50
2023-02-19T17:17:26.911Z,3.30
2023-02-19T17:22:28.836Z,3.10
2023-02-19T17:27:30.637Z,2.89
2023-02-19T17:32:34.117Z,2.76
2023-02-19T17:37:35.911Z,2.70
2023-02-19T17:42:38.018Z,2.55
2023-02-19T17:47:41.869Z,2.38
2023-02-19T17:52:43.729Z,2.36
2023-02-19T17:57:46.578Z,2.32
2023-02-19T18:02:50.510Z,2.20
2023-02-19T18:07:52.808Z,2.18
2023-02-19T18:12:54.898Z,2.07
2023-02-19T18:17:58.138Z,1.84
2023-02-19T18:23:00.714Z,1.76
2023-02-19T18:28:03.565Z,1.69
2023-02-19T18:33:07.245Z,1.53
2023-02-19T18:38:10.034Z,1.52
2023-02-19T18:43:12.504Z,1.54
2023-02-19T18:48:17.601Z,1.42
2023-02-19T18:53:19.406Z,1.38
2023-02-19T18:58:21.156Z,1.42
2023-02-19T19:03:24.857Z,1.38
2023-02-19T19:08:27.466Z,1.25
2023-02-19T19:13:30.879Z,1.29
2023-02-19T19:18:34.254Z,1.31
2023-02-19T19:23:36.920Z,1.32
2023-02-19T19:28:40.636Z,1.25
2023-02-19T19:33:45.133Z,1.12
2023-02-19T19:38:48.011Z,1.07
2023-02-19T19:43:50.558Z,0.95
2023-02-19T19:48:54.811Z,0.83
2023-02-19T19:53:56.643Z,0.82
2023-02-19T19:58:59.090Z,0.68
2023-02-19T20:04:03.378Z,0.70
2023-02-19T20:09:05.894Z,0.55
2023-02-19T20:14:08.426Z,0.52
2023-02-19T20:19:13.592Z,0.50
2023-02-19T20:24:16.334Z,0.47
2023-02-19T20:29:18.732Z,0.35
2023-02-19T20:34:23.289Z,0.13
2023-02-19T20:39:25.497Z,0.02
2023-02-19T20:44:28.777Z,0.10
2023-02-19T20:49:32.253Z,0.07
2023-02-19T20:54:36.277Z,0.03
2023-02-19T20:59:38.768Z,-0.08
2023-02-19T21:04:42.586Z,-0.21
2023-02-19T21:09:44.889Z,-0.24
2023-02-19T21:14:47.267Z,-0.30
2023-02-19T21:19:50.847Z,-0.35
2023-02-19T21:24:52.997Z,-0.44
2023-02-19T21:29:54.898Z,-0.35
2023-02-19T21:34:58.319Z,-0.23
2023-02-19T21:40:00.476Z,-0.18
2023-02-19T21:45:03.193Z,-0.01
2023-02-19T21:50:07.812Z,-0.01
2023-02-19T21:55:10.005Z,-0.15
2023-02-19T22:00:13.189Z,-0.24
2023-02-19T22:05:17.366Z,-0.29
2023-02-19T22:10:20.068Z,-0.11
2023-02-19T22:15:21.823Z,-0.02
2023-02-19T22:20:25.432Z,-0.03
2023-02-19T22:25:28.008Z,0.08
2023-02-19T22:30:30.089Z,0.12
2023-02-19T22:35:34.089Z,0.22
2023-02-19T22:40:35.953Z,0.29
2023-02-19T22:45:38.519Z,0.35
2023-02-19T22:50:42.143Z,0.49
2023-02-19T22:55:44.301Z,0.70
2023-02-19T23:00:46.640Z,0.74
2023-02-19T23:05:50.160Z,0.66
2023-02-19T23:10:52.224Z,0.60
2023-02-19T23:15:53.992Z,0.57
2023-02-19T23:20:57.368Z,0.56
2023-02-19T23:25:59.567Z,0.45
2023-02-19T23:31:02.257Z,0.38
2023-02-19T23:36:07.242Z,0.22
2023-02-19T23:41:09.708Z,0.18
2023-02-19T23:46:14.997Z,0.12
2023-02-19T23:51:18.827Z,0.06
2023-02-19T23:56:23.674Z,-0.03
